sensor_id;sensor_type;location;lat;lon;timestamp;P1;durP1;ratioP1;P2;durP2;ratioP2
59038;SDS011;44824;43.376;19.630;2023-04-03T00:01:09;20.83;;;9.70;;
59038;SDS011;44824;43.376;19.630;2023-04-03T00:03:35;17.70;;;9.95;;
59038;SDS011;44824;43.376;19.630;2023-04-03T00:06:02;16.37;;;9.57;;
59038;SDS011;44824;43.376;19.630;2023-04-03T00:08:31;17.35;;;9.40;;
59038;SDS011;44824;43.376;19.630;2023-04-03T00:13:59;19.17;;;10.20;;
59038;SDS011;44824;43.376;19.630;2023-04-03T00:16:25;20.20;;;12.50;;
59038;SDS011;44824;43.376;19.630;2023-04-03T00:19:00;22.48;;;12.63;;
59038;SDS011;44824;43.376;19.630;2023-04-03T00:21:34;21.65;;;12.02;;
59038;SDS011;44824;43.376;19.630;2023-04-03T00:24:03;22.05;;;11.75;;
59038;SDS011;44824;43.376;19.630;2023-04-03T00:29:33;17.13;;;9.38;;
59038;SDS011;44824;43.376;19.630;2023-04-03T00:31:59;19.40;;;10.57;;
59038;SDS011;44824;43.376;19.630;2023-04-03T00:34:28;16.48;;;9.35;;
59038;SDS011;44824;43.376;19.630;2023-04-03T00:36:55;15.77;;;8.45;;
59038;SDS011;44824;43.376;19.630;2023-04-03T00:39:27;16.00;;;7.82;;
59038;SDS011;44824;43.376;19.630;2023-04-03T00:49:54;13.48;;;6.80;;
59038;SDS011;44824;43.376;19.630;2023-04-03T00:52:21;14.02;;;7.15;;
59038;SDS011;44824;43.376;19.630;2023-04-03T00:54:49;9.48;;;5.35;;
59038;SDS011;44824;43.376;19.630;2023-04-03T00:57:18;13.45;;;5.63;;
59038;SDS011;44824;43.376;19.630;2023-04-03T00:59:45;9.60;;;4.90;;
59038;SDS011;44824;43.376;19.630;2023-04-03T01:02:12;9.23;;;4.50;;
59038;SDS011;44824;43.376;19.630;2023-04-03T01:04:42;9.48;;;4.93;;
59038;SDS011;44824;43.376;19.630;2023-04-03T01:09:35;8.73;;;3.83;;
59038;SDS011;44824;43.376;19.630;2023-04-03T01:18:15;13.23;;;6.70;;
59038;SDS011;44824;43.376;19.630;2023-04-03T01:26:11;12.30;;;6.50;;
59038;SDS011;44824;43.376;19.630;2023-04-03T01:28:38;12.68;;;6.90;;
59038;SDS011;44824;43.376;19.630;2023-04-03T01:33:50;12.93;;;6.50;;
59038;SDS011;44824;43.376;19.630;2023-04-03T01:36:18;13.93;;;6.82;;
59038;SDS011;44824;43.376;19.630;2023-04-03T01:38:52;12.93;;;6.53;;
59038;SDS011;44824;43.376;19.630;2023-04-03T01:41:19;11.95;;;6.10;;
59038;SDS011;44824;43.376;19.630;2023-04-03T01:43:51;11.73;;;5.95;;
59038;SDS011;44824;43.376;19.630;2023-04-03T01:46:21;10.77;;;5.22;;
59038;SDS011;44824;43.376;19.630;2023-04-03T01:48:47;9.93;;;4.55;;
59038;SDS011;44824;43.376;19.630;2023-04-03T01:51:14;8.98;;;4.05;;
59038;SDS011;44824;43.376;19.630;2023-04-03T01:53:46;11.25;;;4.72;;
59038;SDS011;44824;43.376;19.630;2023-04-03T01:56:12;9.93;;;4.90;;
59038;SDS011;44824;43.376;19.630;2023-04-03T01:58:38;9.38;;;4.40;;
59038;SDS011;44824;43.376;19.630;2023-04-03T02:01:04;8.25;;;3.90;;
59038;SDS011;44824;43.376;19.630;2023-04-03T02:03:31;7.43;;;3.70;;
59038;SDS011;44824;43.376;19.630;2023-04-03T02:05:57;8.38;;;4.05;;
59038;SDS011;44824;43.376;19.630;2023-04-03T02:08:26;10.07;;;4.50;;
59038;SDS011;44824;43.376;19.630;2023-04-03T02:10:58;9.68;;;4.00;;
59038;SDS011;44824;43.376;19.630;2023-04-03T02:13:37;7.95;;;3.70;;
59038;SDS011;44824;43.376;19.630;2023-04-03T02:16:06;9.52;;;4.10;;
59038;SDS011;44824;43.376;19.630;2023-04-03T02:18:42;9.02;;;3.50;;
59038;SDS011;44824;43.376;19.630;2023-04-03T02:21:17;8.27;;;3.70;;
59038;SDS011;44824;43.376;19.630;2023-04-03T02:23:43;9.60;;;4.40;;
59038;SDS011;44824;43.376;19.630;2023-04-03T02:26:16;9.27;;;4.37;;
59038;SDS011;44824;43.376;19.630;2023-04-03T02:29:00;8.00;;;3.38;;
59038;SDS011;44824;43.376;19.630;2023-04-03T02:31:27;8.07;;;2.80;;
59038;SDS011;44824;43.376;19.630;2023-04-03T02:34:03;6.68;;;2.55;;
59038;SDS011;44824;43.376;19.630;2023-04-03T02:36:29;7.88;;;3.47;;
59038;SDS011;44824;43.376;19.630;2023-04-03T02:38:58;9.25;;;4.45;;
59038;SDS011;44824;43.376;19.630;2023-04-03T02:41:24;14.18;;;6.00;;
59038;SDS011;44824;43.376;19.630;2023-04-03T02:46:39;9.98;;;5.30;;
59038;SDS011;44824;43.376;19.630;2023-04-03T02:49:08;11.82;;;6.05;;
59038;SDS011;44824;43.376;19.630;2023-04-03T02:51:34;11.80;;;5.70;;
59038;SDS011;44824;43.376;19.630;2023-04-03T02:54:00;9.95;;;4.70;;
59038;SDS011;44824;43.376;19.630;2023-04-03T02:56:29;8.02;;;3.90;;
59038;SDS011;44824;43.376;19.630;2023-04-03T03:01:58;8.82;;;4.18;;
59038;SDS011;44824;43.376;19.630;2023-04-03T03:04:24;10.18;;;5.15;;
59038;SDS011;44824;43.376;19.630;2023-04-03T03:06:51;11.10;;;4.38;;
59038;SDS011;44824;43.376;19.630;2023-04-03T03:09:17;9.60;;;3.70;;
59038;SDS011;44824;43.376;19.630;2023-04-03T03:11:43;8.38;;;3.67;;
59038;SDS011;44824;43.376;19.630;2023-04-03T03:14:24;8.70;;;3.95;;
59038;SDS011;44824;43.376;19.630;2023-04-03T03:16:59;9.20;;;3.92;;
59038;SDS011;44824;43.376;19.630;2023-04-03T03:19:25;9.68;;;3.85;;
59038;SDS011;44824;43.376;19.630;2023-04-03T03:22:07;7.53;;;3.15;;
59038;SDS011;44824;43.376;19.630;2023-04-03T03:24:33;7.55;;;3.10;;
59038;SDS011;44824;43.376;19.630;2023-04-03T03:26:59;6.63;;;2.90;;
59038;SDS011;44824;43.376;19.630;2023-04-03T03:29:37;8.13;;;2.80;;
59038;SDS011;44824;43.376;19.630;2023-04-03T03:32:04;7.38;;;2.88;;
59038;SDS011;44824;43.376;19.630;2023-04-03T03:34:30;8.02;;;3.38;;
59038;SDS011;44824;43.376;19.630;2023-04-03T03:36:56;7.18;;;2.95;;
59038;SDS011;44824;43.376;19.630;2023-04-03T03:39:22;7.57;;;3.20;;
59038;SDS011;44824;43.376;19.630;2023-04-03T03:41:48;7.15;;;3.15;;
59038;SDS011;44824;43.376;19.630;2023-04-03T03:49:39;7.38;;;2.72;;
59038;SDS011;44824;43.376;19.630;2023-04-03T03:52:05;5.50;;;2.50;;
59038;SDS011;44824;43.376;19.630;2023-04-03T03:54:31;6.95;;;2.70;;
59038;SDS011;44824;43.376;19.630;2023-04-03T03:56:57;7.57;;;3.00;;
59038;SDS011;44824;43.376;19.630;2023-04-03T03:59:42;7.32;;;3.10;;
59038;SDS011;44824;43.376;19.630;2023-04-03T04:02:09;8.35;;;2.78;;
59038;SDS011;44824;43.376;19.630;2023-04-03T04:04:35;6.37;;;2.60;;
59038;SDS011;44824;43.376;19.630;2023-04-03T04:07:01;6.75;;;2.65;;
59038;SDS011;44824;43.376;19.630;2023-04-03T04:09:33;8.32;;;2.95;;
59038;SDS011;44824;43.376;19.630;2023-04-03T04:11:59;7.10;;;2.70;;
59038;SDS011;44824;43.376;19.630;2023-04-03T04:17:29;7.03;;;2.90;;
59038;SDS011;44824;43.376;19.630;2023-04-03T04:19:55;7.35;;;2.92;;
59038;SDS011;44824;43.376;19.630;2023-04-03T04:22:21;11.55;;;3.13;;
59038;SDS011;44824;43.376;19.630;2023-04-03T04:24:47;6.47;;;2.80;;
59038;SDS011;44824;43.376;19.630;2023-04-03T04:27:16;7.53;;;3.40;;
59038;SDS011;44824;43.376;19.630;2023-04-03T04:29:42;6.97;;;2.78;;
59038;SDS011;44824;43.376;19.630;2023-04-03T04:32:15;7.63;;;2.70;;
59038;SDS011;44824;43.376;19.630;2023-04-03T04:34:41;5.63;;;2.50;;
59038;SDS011;44824;43.376;19.630;2023-04-03T04:37:07;6.15;;;2.90;;
59038;SDS011;44824;43.376;19.630;2023-04-03T04:39:33;6.78;;;3.05;;
59038;SDS011;44824;43.376;19.630;2023-04-03T04:42:03;8.45;;;3.33;;
59038;SDS011;44824;43.376;19.630;2023-04-03T04:44:32;7.05;;;3.05;;
59038;SDS011;44824;43.376;19.630;2023-04-03T04:47:04;8.50;;;3.65;;
59038;SDS011;44824;43.376;19.630;2023-04-03T04:49:30;8.77;;;3.38;;
59038;SDS011;44824;43.376;19.630;2023-04-03T04:51:59;7.10;;;3.35;;
59038;SDS011;44824;43.376;19.630;2023-04-03T04:54:25;8.50;;;2.90;;
59038;SDS011;44824;43.376;19.630;2023-04-03T04:56:57;10.70;;;3.35;;
59038;SDS011;44824;43.376;19.630;2023-04-03T05:02:15;10.32;;;3.90;;
59038;SDS011;44824;43.376;19.630;2023-04-03T05:04:41;8.77;;;4.32;;
59038;SDS011;44824;43.376;19.630;2023-04-03T05:07:07;10.57;;;5.15;;
59038;SDS011;44824;43.376;19.630;2023-04-03T05:09:33;8.65;;;4.18;;
59038;SDS011;44824;43.376;19.630;2023-04-03T05:11:59;12.65;;;6.18;;
59038;SDS011;44824;43.376;19.630;2023-04-03T05:14:39;17.45;;;8.77;;
59038;SDS011;44824;43.376;19.630;2023-04-03T05:17:05;15.45;;;8.52;;
59038;SDS011;44824;43.376;19.630;2023-04-03T05:19:31;17.88;;;8.88;;
59038;SDS011;44824;43.376;19.630;2023-04-03T05:21:57;16.00;;;8.55;;
59038;SDS011;44824;43.376;19.630;2023-04-03T05:24:32;17.38;;;9.93;;
59038;SDS011;44824;43.376;19.630;2023-04-03T05:26:58;17.75;;;11.05;;
59038;SDS011;44824;43.376;19.630;2023-04-03T05:29:29;17.58;;;10.93;;
59038;SDS011;44824;43.376;19.630;2023-04-03T05:31:55;33.33;;;18.75;;
59038;SDS011;44824;43.376;19.630;2023-04-03T05:34:21;27.27;;;17.60;;
59038;SDS011;44824;43.376;19.630;2023-04-03T05:36:49;22.33;;;15.88;;
59038;SDS011;44824;43.376;19.630;2023-04-03T05:39:16;23.10;;;14.48;;
59038;SDS011;44824;43.376;19.630;2023-04-03T05:41:42;24.92;;;15.98;;
59038;SDS011;44824;43.376;19.630;2023-04-03T05:44:08;34.30;;;20.77;;
59038;SDS011;44824;43.376;19.630;2023-04-03T05:46:34;22.90;;;14.82;;
59038;SDS011;44824;43.376;19.630;2023-04-03T05:49:00;15.73;;;10.35;;
59038;SDS011;44824;43.376;19.630;2023-04-03T05:51:30;14.00;;;9.05;;
59038;SDS011;44824;43.376;19.630;2023-04-03T05:54:03;14.30;;;8.75;;
59038;SDS011;44824;43.376;19.630;2023-04-03T05:56:41;19.35;;;13.02;;
59038;SDS011;44824;43.376;19.630;2023-04-03T05:59:19;20.15;;;13.57;;
59038;SDS011;44824;43.376;19.630;2023-04-03T06:01:46;18.73;;;12.60;;
59038;SDS011;44824;43.376;19.630;2023-04-03T06:04:12;18.87;;;13.13;;
59038;SDS011;44824;43.376;19.630;2023-04-03T06:09:11;16.38;;;9.05;;
59038;SDS011;44824;43.376;19.630;2023-04-03T06:11:38;15.88;;;9.77;;
59038;SDS011;44824;43.376;19.630;2023-04-03T06:14:06;15.38;;;10.35;;
59038;SDS011;44824;43.376;19.630;2023-04-03T06:16:33;16.63;;;10.87;;
59038;SDS011;44824;43.376;19.630;2023-04-03T06:18:59;14.35;;;8.95;;
59038;SDS011;44824;43.376;19.630;2023-04-03T06:21:35;13.17;;;8.93;;
59038;SDS011;44824;43.376;19.630;2023-04-03T06:24:29;16.75;;;11.65;;
59038;SDS011;44824;43.376;19.630;2023-04-03T06:29:34;17.45;;;11.90;;
59038;SDS011;44824;43.376;19.630;2023-04-03T06:32:10;15.43;;;10.45;;
59038;SDS011;44824;43.376;19.630;2023-04-03T06:34:37;12.57;;;7.63;;
59038;SDS011;44824;43.376;19.630;2023-04-03T06:37:06;14.85;;;9.20;;
59038;SDS011;44824;43.376;19.630;2023-04-03T06:39:36;10.05;;;6.28;;
59038;SDS011;44824;43.376;19.630;2023-04-03T06:42:02;12.73;;;8.73;;
59038;SDS011;44824;43.376;19.630;2023-04-03T06:47:44;9.15;;;5.60;;
59038;SDS011;44824;43.376;19.630;2023-04-03T06:50:11;10.07;;;6.03;;
59038;SDS011;44824;43.376;19.630;2023-04-03T06:52:54;9.55;;;5.57;;
59038;SDS011;44824;43.376;19.630;2023-04-03T06:55:21;9.10;;;5.30;;
59038;SDS011;44824;43.376;19.630;2023-04-03T06:57:51;8.52;;;5.00;;
59038;SDS011;44824;43.376;19.630;2023-04-03T07:00:17;9.85;;;4.90;;
59038;SDS011;44824;43.376;19.630;2023-04-03T07:02:43;13.02;;;8.60;;
59038;SDS011;44824;43.376;19.630;2023-04-03T07:05:10;13.40;;;9.07;;
59038;SDS011;44824;43.376;19.630;2023-04-03T07:07:39;7.90;;;3.97;;
59038;SDS011;44824;43.376;19.630;2023-04-03T07:10:16;6.27;;;3.13;;
59038;SDS011;44824;43.376;19.630;2023-04-03T07:13:06;7.28;;;3.10;;
59038;SDS011;44824;43.376;19.630;2023-04-03T07:18:28;7.07;;;2.47;;
59038;SDS011;44824;43.376;19.630;2023-04-03T07:20:54;6.30;;;2.77;;
59038;SDS011;44824;43.376;19.630;2023-04-03T07:23:21;5.72;;;2.40;;
59038;SDS011;44824;43.376;19.630;2023-04-03T07:25:48;6.72;;;2.50;;
59038;SDS011;44824;43.376;19.630;2023-04-03T07:28:15;5.68;;;2.05;;
59038;SDS011;44824;43.376;19.630;2023-04-03T07:30:51;5.45;;;2.20;;
59038;SDS011;44824;43.376;19.630;2023-04-03T07:35:54;5.13;;;1.85;;
59038;SDS011;44824;43.376;19.630;2023-04-03T07:38:27;5.38;;;2.28;;
59038;SDS011;44824;43.376;19.630;2023-04-03T07:41:14;6.68;;;2.78;;
59038;SDS011;44824;43.376;19.630;2023-04-03T07:43:40;8.10;;;3.28;;
59038;SDS011;44824;43.376;19.630;2023-04-03T07:52:04;5.57;;;2.28;;
59038;SDS011;44824;43.376;19.630;2023-04-03T07:54:32;5.20;;;2.00;;
59038;SDS011;44824;43.376;19.630;2023-04-03T07:56:58;4.97;;;2.00;;
59038;SDS011;44824;43.376;19.630;2023-04-03T08:15:06;4.60;;;1.55;;
59038;SDS011;44824;43.376;19.630;2023-04-03T08:17:33;5.32;;;2.28;;
59038;SDS011;44824;43.376;19.630;2023-04-03T08:19:59;5.88;;;2.63;;
59038;SDS011;44824;43.376;19.630;2023-04-03T08:22:26;5.03;;;1.80;;
59038;SDS011;44824;43.376;19.630;2023-04-03T08:28:09;7.75;;;2.92;;
59038;SDS011;44824;43.376;19.630;2023-04-03T08:30:43;5.47;;;2.10;;
59038;SDS011;44824;43.376;19.630;2023-04-03T08:33:11;6.45;;;2.60;;
59038;SDS011;44824;43.376;19.630;2023-04-03T08:38:08;6.70;;;2.75;;
59038;SDS011;44824;43.376;19.630;2023-04-03T08:40:37;5.63;;;2.50;;
59038;SDS011;44824;43.376;19.630;2023-04-03T08:43:17;5.78;;;2.63;;
59038;SDS011;44824;43.376;19.630;2023-04-03T08:48:44;5.82;;;2.90;;
59038;SDS011;44824;43.376;19.630;2023-04-03T08:51:15;7.80;;;4.70;;
59038;SDS011;44824;43.376;19.630;2023-04-03T08:53:43;6.03;;;2.95;;
59038;SDS011;44824;43.376;19.630;2023-04-03T08:56:10;6.38;;;3.13;;
59038;SDS011;44824;43.376;19.630;2023-04-03T08:58:50;6.00;;;2.90;;
59038;SDS011;44824;43.376;19.630;2023-04-03T09:01:33;6.20;;;2.95;;
59038;SDS011;44824;43.376;19.630;2023-04-03T09:04:05;7.13;;;2.80;;
59038;SDS011;44824;43.376;19.630;2023-04-03T09:06:35;6.68;;;3.28;;
59038;SDS011;44824;43.376;19.630;2023-04-03T09:09:07;7.82;;;2.80;;
59038;SDS011;44824;43.376;19.630;2023-04-03T09:17:03;7.55;;;3.38;;
59038;SDS011;44824;43.376;19.630;2023-04-03T09:21:57;5.80;;;2.78;;
59038;SDS011;44824;43.376;19.630;2023-04-03T09:24:23;8.52;;;3.08;;
59038;SDS011;44824;43.376;19.630;2023-04-03T09:29:21;5.93;;;2.55;;
59038;SDS011;44824;43.376;19.630;2023-04-03T09:31:58;6.55;;;2.88;;
59038;SDS011;44824;43.376;19.630;2023-04-03T09:36:52;6.78;;;3.10;;
59038;SDS011;44824;43.376;19.630;2023-04-03T09:39:19;6.65;;;2.80;;
59038;SDS011;44824;43.376;19.630;2023-04-03T09:44:23;6.72;;;2.50;;
59038;SDS011;44824;43.376;19.630;2023-04-03T09:50:41;9.98;;;3.83;;
59038;SDS011;44824;43.376;19.630;2023-04-03T09:52:45;6.25;;;2.85;;
59038;SDS011;44824;43.376;19.630;2023-04-03T09:55:17;5.85;;;2.25;;
59038;SDS011;44824;43.376;19.630;2023-04-03T09:57:45;7.05;;;3.22;;
59038;SDS011;44824;43.376;19.630;2023-04-03T10:26:57;6.53;;;2.60;;
59038;SDS011;44824;43.376;19.630;2023-04-03T10:41:17;6.00;;;2.50;;
59038;SDS011;44824;43.376;19.630;2023-04-03T10:52:06;7.90;;;3.03;;
59038;SDS011;44824;43.376;19.630;2023-04-03T10:54:38;5.85;;;2.60;;
59038;SDS011;44824;43.376;19.630;2023-04-03T10:57:11;6.07;;;2.50;;
59038;SDS011;44824;43.376;19.630;2023-04-03T11:05:17;8.23;;;4.22;;
59038;SDS011;44824;43.376;19.630;2023-04-03T11:07:48;8.35;;;3.72;;
59038;SDS011;44824;43.376;19.630;2023-04-03T11:12:51;5.57;;;1.90;;
59038;SDS011;44824;43.376;19.630;2023-04-03T11:15:19;6.18;;;2.40;;
59038;SDS011;44824;43.376;19.630;2023-04-03T11:17:58;6.30;;;2.75;;
59038;SDS011;44824;43.376;19.630;2023-04-03T11:20:32;7.20;;;2.85;;
59038;SDS011;44824;43.376;19.630;2023-04-03T11:23:04;7.13;;;2.20;;
59038;SDS011;44824;43.376;19.630;2023-04-03T11:25:33;6.95;;;2.90;;
59038;SDS011;44824;43.376;19.630;2023-04-03T11:28:03;8.43;;;3.70;;
59038;SDS011;44824;43.376;19.630;2023-04-03T11:35:34;10.88;;;5.15;;
59038;SDS011;44824;43.376;19.630;2023-04-03T11:38:01;4.80;;;1.93;;
59038;SDS011;44824;43.376;19.630;2023-04-03T11:40:33;9.00;;;3.90;;
59038;SDS011;44824;43.376;19.630;2023-04-03T11:45:29;5.63;;;2.20;;
59038;SDS011;44824;43.376;19.630;2023-04-03T11:48:41;5.28;;;2.25;;
59038;SDS011;44824;43.376;19.630;2023-04-03T11:51:02;4.60;;;1.70;;
59038;SDS011;44824;43.376;19.630;2023-04-03T11:55:58;5.05;;;1.88;;
59038;SDS011;44824;43.376;19.630;2023-04-03T12:13:41;5.88;;;2.35;;
59038;SDS011;44824;43.376;19.630;2023-04-03T12:16:29;5.20;;;2.03;;
59038;SDS011;44824;43.376;19.630;2023-04-03T12:18:57;7.28;;;3.17;;
59038;SDS011;44824;43.376;19.630;2023-04-03T12:29:13;4.95;;;1.80;;
59038;SDS011;44824;43.376;19.630;2023-04-03T12:31:50;3.30;;;1.10;;
59038;SDS011;44824;43.376;19.630;2023-04-03T12:42:16;5.97;;;2.03;;
59038;SDS011;44824;43.376;19.630;2023-04-03T12:44:49;9.02;;;4.18;;
59038;SDS011;44824;43.376;19.630;2023-04-03T12:47:33;5.32;;;2.05;;
59038;SDS011;44824;43.376;19.630;2023-04-03T12:50:01;5.40;;;2.05;;
59038;SDS011;44824;43.376;19.630;2023-04-03T12:55:14;4.68;;;1.90;;
59038;SDS011;44824;43.376;19.630;2023-04-03T12:57:40;5.00;;;1.80;;
59038;SDS011;44824;43.376;19.630;2023-04-03T13:00:25;6.68;;;2.95;;
59038;SDS011;44824;43.376;19.630;2023-04-03T13:47:38;6.90;;;3.42;;
59038;SDS011;44824;43.376;19.630;2023-04-03T13:52:43;11.80;;;5.50;;
59038;SDS011;44824;43.376;19.630;2023-04-03T13:55:15;9.82;;;5.47;;
59038;SDS011;44824;43.376;19.630;2023-04-03T14:00:49;7.60;;;4.63;;
59038;SDS011;44824;43.376;19.630;2023-04-03T14:03:27;9.57;;;4.75;;
59038;SDS011;44824;43.376;19.630;2023-04-03T14:05:54;8.50;;;4.55;;
59038;SDS011;44824;43.376;19.630;2023-04-03T14:08:20;9.15;;;5.57;;
59038;SDS011;44824;43.376;19.630;2023-04-03T14:20:06;10.50;;;5.55;;
59038;SDS011;44824;43.376;19.630;2023-04-03T14:22:34;19.50;;;12.75;;
59038;SDS011;44824;43.376;19.630;2023-04-03T14:25:06;16.30;;;11.43;;
59038;SDS011;44824;43.376;19.630;2023-04-03T14:27:37;15.02;;;5.45;;
59038;SDS011;44824;43.376;19.630;2023-04-03T14:30:05;8.95;;;5.63;;
59038;SDS011;44824;43.376;19.630;2023-04-03T14:38:54;12.73;;;8.02;;
59038;SDS011;44824;43.376;19.630;2023-04-03T14:41:21;9.43;;;5.85;;
59038;SDS011;44824;43.376;19.630;2023-04-03T14:43:48;7.63;;;4.80;;
59038;SDS011;44824;43.376;19.630;2023-04-03T14:48:41;10.35;;;4.88;;
59038;SDS011;44824;43.376;19.630;2023-04-03T14:51:08;9.68;;;6.20;;
59038;SDS011;44824;43.376;19.630;2023-04-03T14:53:38;8.05;;;4.93;;
59038;SDS011;44824;43.376;19.630;2023-04-03T14:56:25;9.80;;;5.40;;
59038;SDS011;44824;43.376;19.630;2023-04-03T15:02:24;10.30;;;6.28;;
59038;SDS011;44824;43.376;19.630;2023-04-03T15:11:10;9.23;;;5.55;;
59038;SDS011;44824;43.376;19.630;2023-04-03T15:13:37;8.63;;;5.53;;
59038;SDS011;44824;43.376;19.630;2023-04-03T15:16:03;13.57;;;8.85;;
59038;SDS011;44824;43.376;19.630;2023-04-03T15:18:42;8.95;;;6.07;;
59038;SDS011;44824;43.376;19.630;2023-04-03T15:21:12;9.27;;;6.72;;
59038;SDS011;44824;43.376;19.630;2023-04-03T15:23:38;9.87;;;6.43;;
59038;SDS011;44824;43.376;19.630;2023-04-03T15:26:07;8.25;;;4.65;;
59038;SDS011;44824;43.376;19.630;2023-04-03T15:28:35;10.25;;;6.68;;
59038;SDS011;44824;43.376;19.630;2023-04-03T15:31:11;9.95;;;6.65;;
59038;SDS011;44824;43.376;19.630;2023-04-03T15:36:41;17.95;;;10.93;;
59038;SDS011;44824;43.376;19.630;2023-04-03T15:39:07;13.30;;;7.80;;
59038;SDS011;44824;43.376;19.630;2023-04-03T15:41:34;11.20;;;6.70;;
59038;SDS011;44824;43.376;19.630;2023-04-03T15:44:00;10.68;;;6.93;;
59038;SDS011;44824;43.376;19.630;2023-04-03T15:52:54;8.93;;;5.18;;
59038;SDS011;44824;43.376;19.630;2023-04-03T16:01:53;14.00;;;8.63;;
59038;SDS011;44824;43.376;19.630;2023-04-03T16:04:20;8.18;;;5.05;;
59038;SDS011;44824;43.376;19.630;2023-04-03T16:06:46;13.00;;;8.53;;
59038;SDS011;44824;43.376;19.630;2023-04-03T16:09:12;8.80;;;5.70;;
59038;SDS011;44824;43.376;19.630;2023-04-03T16:11:43;9.23;;;5.10;;
59038;SDS011;44824;43.376;19.630;2023-04-03T16:14:09;9.73;;;5.45;;
59038;SDS011;44824;43.376;19.630;2023-04-03T16:16:38;8.60;;;5.65;;
59038;SDS011;44824;43.376;19.630;2023-04-03T16:19:06;8.70;;;4.30;;
59038;SDS011;44824;43.376;19.630;2023-04-03T16:21:33;9.95;;;5.63;;
59038;SDS011;44824;43.376;19.630;2023-04-03T16:23:59;10.77;;;7.13;;
59038;SDS011;44824;43.376;19.630;2023-04-03T16:26:31;10.73;;;6.57;;
59038;SDS011;44824;43.376;19.630;2023-04-03T16:28:58;14.55;;;8.18;;
59038;SDS011;44824;43.376;19.630;2023-04-03T16:31:27;16.55;;;10.70;;
59038;SDS011;44824;43.376;19.630;2023-04-03T16:34:05;12.43;;;8.90;;
59038;SDS011;44824;43.376;19.630;2023-04-03T16:36:31;10.07;;;5.60;;
59038;SDS011;44824;43.376;19.630;2023-04-03T16:38:59;9.00;;;5.68;;
59038;SDS011;44824;43.376;19.630;2023-04-03T16:41:28;9.77;;;5.70;;
59038;SDS011;44824;43.376;19.630;2023-04-03T16:43:54;8.73;;;5.57;;
59038;SDS011;44824;43.376;19.630;2023-04-03T16:46:21;7.72;;;4.50;;
59038;SDS011;44824;43.376;19.630;2023-04-03T16:51:42;8.43;;;5.28;;
59038;SDS011;44824;43.376;19.630;2023-04-03T16:54:14;6.25;;;3.45;;
59038;SDS011;44824;43.376;19.630;2023-04-03T16:56:44;6.28;;;3.45;;
59038;SDS011;44824;43.376;19.630;2023-04-03T16:59:14;7.78;;;4.97;;
59038;SDS011;44824;43.376;19.630;2023-04-03T17:01:50;7.90;;;4.65;;
59038;SDS011;44824;43.376;19.630;2023-04-03T17:04:16;6.72;;;3.78;;
59038;SDS011;44824;43.376;19.630;2023-04-03T17:06:42;8.63;;;5.18;;
59038;SDS011;44824;43.376;19.630;2023-04-03T17:09:08;8.38;;;4.82;;
59038;SDS011;44824;43.376;19.630;2023-04-03T17:11:35;9.38;;;5.88;;
59038;SDS011;44824;43.376;19.630;2023-04-03T17:14:01;20.50;;;11.13;;
59038;SDS011;44824;43.376;19.630;2023-04-03T17:16:34;16.15;;;10.13;;
59038;SDS011;44824;43.376;19.630;2023-04-03T17:19:04;18.73;;;9.05;;
59038;SDS011;44824;43.376;19.630;2023-04-03T17:21:33;18.63;;;8.40;;
59038;SDS011;44824;43.376;19.630;2023-04-03T17:24:02;10.57;;;6.90;;
59038;SDS011;44824;43.376;19.630;2023-04-03T17:26:34;12.13;;;8.23;;
59038;SDS011;44824;43.376;19.630;2023-04-03T17:29:11;10.32;;;6.95;;
59038;SDS011;44824;43.376;19.630;2023-04-03T17:31:39;9.73;;;6.18;;
59038;SDS011;44824;43.376;19.630;2023-04-03T17:34:08;9.10;;;4.95;;
59038;SDS011;44824;43.376;19.630;2023-04-03T17:36:36;6.82;;;3.95;;
59038;SDS011;44824;43.376;19.630;2023-04-03T17:39:06;10.10;;;4.28;;
59038;SDS011;44824;43.376;19.630;2023-04-03T17:41:37;7.32;;;4.15;;
59038;SDS011;44824;43.376;19.630;2023-04-03T17:44:06;7.03;;;3.83;;
59038;SDS011;44824;43.376;19.630;2023-04-03T17:49:55;7.70;;;4.40;;
59038;SDS011;44824;43.376;19.630;2023-04-03T17:52:30;10.38;;;6.32;;
59038;SDS011;44824;43.376;19.630;2023-04-03T17:55:01;6.82;;;3.78;;
59038;SDS011;44824;43.376;19.630;2023-04-03T17:57:32;7.85;;;4.22;;
59038;SDS011;44824;43.376;19.630;2023-04-03T18:00:01;7.50;;;4.15;;
59038;SDS011;44824;43.376;19.630;2023-04-03T18:02:29;10.85;;;8.52;;
59038;SDS011;44824;43.376;19.630;2023-04-03T18:04:57;11.07;;;6.85;;
59038;SDS011;44824;43.376;19.630;2023-04-03T18:07:25;15.07;;;7.25;;
59038;SDS011;44824;43.376;19.630;2023-04-03T18:09:52;14.52;;;8.57;;
59038;SDS011;44824;43.376;19.630;2023-04-03T18:12:22;12.88;;;7.53;;
59038;SDS011;44824;43.376;19.630;2023-04-03T18:14:48;14.60;;;9.40;;
59038;SDS011;44824;43.376;19.630;2023-04-03T18:19:54;14.85;;;8.52;;
59038;SDS011;44824;43.376;19.630;2023-04-03T18:22:20;21.50;;;12.52;;
59038;SDS011;44824;43.376;19.630;2023-04-03T18:24:55;14.70;;;9.52;;
59038;SDS011;44824;43.376;19.630;2023-04-03T18:27:21;14.70;;;9.45;;
59038;SDS011;44824;43.376;19.630;2023-04-03T18:29:53;16.90;;;9.30;;
59038;SDS011;44824;43.376;19.630;2023-04-03T18:32:21;13.88;;;8.75;;
59038;SDS011;44824;43.376;19.630;2023-04-03T18:37:51;9.48;;;5.85;;
59038;SDS011;44824;43.376;19.630;2023-04-03T18:40:18;14.10;;;9.75;;
59038;SDS011;44824;43.376;19.630;2023-04-03T18:42:47;14.40;;;9.20;;
59038;SDS011;44824;43.376;19.630;2023-04-03T18:45:15;21.98;;;13.10;;
59038;SDS011;44824;43.376;19.630;2023-04-03T18:47:42;16.23;;;11.63;;
59038;SDS011;44824;43.376;19.630;2023-04-03T18:50:16;19.10;;;10.75;;
59038;SDS011;44824;43.376;19.630;2023-04-03T18:52:42;10.75;;;6.25;;
59038;SDS011;44824;43.376;19.630;2023-04-03T18:55:10;6.00;;;3.10;;
59038;SDS011;44824;43.376;19.630;2023-04-03T18:57:39;11.50;;;8.68;;
59038;SDS011;44824;43.376;19.630;2023-04-03T19:00:06;8.13;;;5.07;;
59038;SDS011;44824;43.376;19.630;2023-04-03T19:02:37;8.00;;;4.60;;
59038;SDS011;44824;43.376;19.630;2023-04-03T19:05:41;11.32;;;6.97;;
59038;SDS011;44824;43.376;19.630;2023-04-03T19:08:08;7.50;;;4.13;;
59038;SDS011;44824;43.376;19.630;2023-04-03T19:10:34;5.80;;;3.00;;
59038;SDS011;44824;43.376;19.630;2023-04-03T19:13:00;8.23;;;3.83;;
59038;SDS011;44824;43.376;19.630;2023-04-03T19:15:34;6.75;;;3.25;;
59038;SDS011;44824;43.376;19.630;2023-04-03T19:18:31;5.43;;;2.40;;
59038;SDS011;44824;43.376;19.630;2023-04-03T19:21:02;5.60;;;2.42;;
59038;SDS011;44824;43.376;19.630;2023-04-03T19:23:28;6.50;;;4.00;;
59038;SDS011;44824;43.376;19.630;2023-04-03T19:25:58;7.85;;;4.32;;
59038;SDS011;44824;43.376;19.630;2023-04-03T19:28:28;6.68;;;2.88;;
59038;SDS011;44824;43.376;19.630;2023-04-03T19:30:58;7.38;;;3.65;;
59038;SDS011;44824;43.376;19.630;2023-04-03T19:33:31;6.47;;;3.03;;
59038;SDS011;44824;43.376;19.630;2023-04-03T19:36:17;5.55;;;2.50;;
59038;SDS011;44824;43.376;19.630;2023-04-03T19:38:43;5.30;;;2.50;;
59038;SDS011;44824;43.376;19.630;2023-04-03T19:41:13;6.72;;;2.97;;
59038;SDS011;44824;43.376;19.630;2023-04-03T19:43:42;7.40;;;3.03;;
59038;SDS011;44824;43.376;19.630;2023-04-03T19:46:09;6.60;;;3.30;;
59038;SDS011;44824;43.376;19.630;2023-04-03T19:48:46;7.18;;;3.85;;
59038;SDS011;44824;43.376;19.630;2023-04-03T19:51:21;6.10;;;3.22;;
59038;SDS011;44824;43.376;19.630;2023-04-03T19:53:49;8.55;;;4.30;;
59038;SDS011;44824;43.376;19.630;2023-04-03T19:59:20;10.15;;;5.55;;
59038;SDS011;44824;43.376;19.630;2023-04-03T20:01:59;13.07;;;6.95;;